createdAt,value
2023-04-19T00:01:01.575Z,7.32
2023-04-19T00:03:30.468Z,5.13
2023-04-19T00:06:00.672Z,5.15
2023-04-19T00:08:27.833Z,5.78
2023-04-19T00:10:54.930Z,5.80
2023-04-19T00:13:21.968Z,5.38
2023-04-19T00:15:49.117Z,5.22
2023-04-19T00:18:16.229Z,6.03
2023-04-19T00:20:43.611Z,5.68
2023-04-19T00:23:10.696Z,6.72
2023-04-19T00:25:37.770Z,6.25
2023-04-19T00:28:05.112Z,6.30
2023-04-19T00:30:32.296Z,5.88
2023-04-19T00:32:59.363Z,6.35
2023-04-19T00:35:26.492Z,6.35
2023-04-19T00:37:53.520Z,6.32
2023-04-19T00:40:20.603Z,6.93
2023-04-19T00:42:47.676Z,6.55
2023-04-19T00:45:14.905Z,7.00
2023-04-19T00:47:42.029Z,6.53
2023-04-19T00:50:09.747Z,6.40
2023-04-19T00:52:36.925Z,6.80
2023-04-19T00:55:05.344Z,6.53
2023-04-19T00:57:32.441Z,6.22
2023-04-19T00:59:59.724Z,6.63
2023-04-19T01:02:28.408Z,7.15
2023-04-19T01:04:55.702Z,6.53
2023-04-19T01:07:22.800Z,6.57
2023-04-19T01:09:49.859Z,6.32
2023-04-19T01:12:16.916Z,6.13
2023-04-19T01:14:44.333Z,5.85
2023-04-19T01:17:13.299Z,5.70
2023-04-19T01:19:40.972Z,5.45
2023-04-19T01:22:08.589Z,6.63
2023-04-19T01:24:36.679Z,6.07
2023-04-19T01:27:04.001Z,5.40
2023-04-19T01:29:31.047Z,5.70
2023-04-19T01:31:58.053Z,6.43
2023-04-19T01:34:27.495Z,5.68
2023-04-19T01:36:54.591Z,4.88
2023-04-19T01:39:22.968Z,5.68
2023-04-19T01:41:49.940Z,5.38
2023-04-19T01:44:17.180Z,5.28
2023-04-19T01:46:44.463Z,5.85
2023-04-19T01:49:12.983Z,5.30
2023-04-19T01:51:40.389Z,5.38
2023-04-19T01:54:07.455Z,4.93
2023-04-19T01:56:34.488Z,5.05
2023-04-19T01:59:02.332Z,5.10
2023-04-19T02:01:30.834Z,6.03
2023-04-19T02:03:59.046Z,5.15
2023-04-19T02:06:26.972Z,5.05
2023-04-19T02:08:54.143Z,5.45
2023-04-19T02:11:21.219Z,5.57
2023-04-19T02:13:48.292Z,6.07
2023-04-19T02:16:15.373Z,6.38
2023-04-19T02:18:43.074Z,5.85
2023-04-19T02:21:11.234Z,6.85
2023-04-19T02:23:38.335Z,6.15
2023-04-19T02:26:05.702Z,6.22
2023-04-19T02:28:33.182Z,5.40
2023-04-19T02:31:04.599Z,5.95
2023-04-19T02:33:35.362Z,6.25
2023-04-19T02:36:02.630Z,5.82
2023-04-19T02:38:29.821Z,5.25
2023-04-19T02:40:56.873Z,6.53
2023-04-19T02:43:24.261Z,5.50
2023-04-19T02:45:51.426Z,7.15
2023-04-19T02:48:18.543Z,6.50
2023-04-19T02:50:45.592Z,7.15
2023-04-19T02:53:12.715Z,6.95
2023-04-19T02:55:40.010Z,6.00
2023-04-19T02:58:13.655Z,7.10
2023-04-19T03:00:49.809Z,6.90
2023-04-19T03:03:20.307Z,8.00
2023-04-19T03:05:47.504Z,7.53
2023-04-19T03:08:14.521Z,6.75
2023-04-19T03:10:41.769Z,7.50
2023-04-19T03:13:09.631Z,9.20
2023-04-19T03:15:36.726Z,7.20
2023-04-19T03:18:04.019Z,6.65
2023-04-19T03:20:31.457Z,6.63
2023-04-19T03:22:58.553Z,7.70
2023-04-19T03:25:26.005Z,7.60
2023-04-19T03:28:00.695Z,7.85
2023-04-19T03:30:47.689Z,8.30
2023-04-19T03:33:14.942Z,7.80
2023-04-19T03:35:44.045Z,7.88
2023-04-19T03:38:12.034Z,9.32
2023-04-19T03:40:39.201Z,8.25
2023-04-19T03:43:08.170Z,8.80
2023-04-19T03:45:35.425Z,8.93
2023-04-19T03:48:03.261Z,9.13
2023-04-19T03:50:31.061Z,9.30
2023-04-19T03:52:58.616Z,8.98
2023-04-19T03:55:25.774Z,8.23
2023-04-19T03:57:52.984Z,8.00
2023-04-19T04:00:29.283Z,7.55
2023-04-19T04:03:00.430Z,7.72
2023-04-19T04:05:28.724Z,7.63
2023-04-19T04:07:56.341Z,7.22
2023-04-19T04:10:23.596Z,8.02
2023-04-19T04:12:51.416Z,7.35
2023-04-19T04:15:25.056Z,7.57
2023-04-19T04:17:54.023Z,7.57
2023-04-19T04:20:21.452Z,7.57
2023-04-19T04:22:50.536Z,7.10
2023-04-19T04:25:22.389Z,7.40
2023-04-19T04:27:52.276Z,7.47
2023-04-19T04:30:21.233Z,7.00
2023-04-19T04:32:51.228Z,6.70
2023-04-19T04:35:18.626Z,6.30
2023-04-19T04:37:56.450Z,8.07
2023-04-19T04:40:23.542Z,7.38
2023-04-19T04:42:52.887Z,6.28
2023-04-19T04:45:20.133Z,6.80
2023-04-19T04:47:49.701Z,7.18
2023-04-19T04:50:17.058Z,6.00
2023-04-19T04:52:44.439Z,6.45
2023-04-19T04:55:17.401Z,5.75
2023-04-19T04:57:45.138Z,5.68
2023-04-19T05:00:18.241Z,5.78
2023-04-19T05:02:54.488Z,5.45
2023-04-19T05:05:23.171Z,5.60
2023-04-19T05:07:50.339Z,5.10
2023-04-19T05:10:17.487Z,5.18
2023-04-19T05:12:46.234Z,5.13
2023-04-19T05:15:13.304Z,5.20
2023-04-19T05:17:45.253Z,4.80
2023-04-19T05:20:13.937Z,4.70
2023-04-19T05:22:41.764Z,4.72
2023-04-19T05:25:10.824Z,4.43
2023-04-19T05:27:38.611Z,4.20
2023-04-19T05:30:06.607Z,6.38
2023-04-19T05:32:35.420Z,4.13
2023-04-19T05:35:05.062Z,4.15
2023-04-19T05:37:32.978Z,5.13
2023-04-19T05:40:00.134Z,4.25
2023-04-19T05:42:27.550Z,3.55
2023-04-19T05:44:54.557Z,4.18
2023-04-19T05:47:22.807Z,4.22
2023-04-19T05:50:14.979Z,4.03
2023-04-19T05:52:47.380Z,4.57
2023-04-19T05:55:14.549Z,4.18
2023-04-19T05:57:44.904Z,3.65
2023-04-19T06:00:12.667Z,4.50
2023-04-19T06:02:59.855Z,4.45
2023-04-19T06:05:27.345Z,4.45
2023-04-19T06:08:02.866Z,4.72
2023-04-19T06:10:40.270Z,3.15
2023-04-19T06:13:17.479Z,3.78
2023-04-19T06:15:44.620Z,3.75
2023-04-19T06:18:19.823Z,3.95
2023-04-19T06:20:47.370Z,3.60
2023-04-19T06:23:14.891Z,3.95
2023-04-19T06:25:42.533Z,4.20
2023-04-19T06:28:09.552Z,3.75
2023-04-19T06:30:36.613Z,3.85
2023-04-19T06:33:03.760Z,3.53
2023-04-19T06:35:31.610Z,3.60
2023-04-19T06:38:01.728Z,3.42
2023-04-19T06:40:31.681Z,3.65
2023-04-19T06:42:58.686Z,3.75
2023-04-19T06:45:26.069Z,4.32
2023-04-19T06:47:53.255Z,4.28
2023-04-19T06:50:20.653Z,3.83
2023-04-19T06:52:47.719Z,3.72
2023-04-19T06:55:14.767Z,3.92
2023-04-19T06:57:42.778Z,2.90
2023-04-19T07:00:10.849Z,3.33
2023-04-19T07:02:38.011Z,3.03
2023-04-19T07:05:05.688Z,2.90
2023-04-19T07:07:33.368Z,3.30
2023-04-19T07:10:00.364Z,3.00
2023-04-19T07:12:27.785Z,2.95
2023-04-19T07:14:57.143Z,3.38
2023-04-19T07:17:24.318Z,3.10
2023-04-19T07:19:51.398Z,3.25
2023-04-19T07:22:18.429Z,2.95
2023-04-19T07:24:45.500Z,3.00
2023-04-19T07:27:14.224Z,3.08
2023-04-19T07:29:41.360Z,3.00
2023-04-19T07:32:08.614Z,3.33
2023-04-19T07:34:37.980Z,3.28
2023-04-19T07:37:05.258Z,3.30
2023-04-19T07:39:32.869Z,2.70
2023-04-19T07:42:01.626Z,3.15
2023-04-19T07:44:28.633Z,2.95
2023-04-19T07:46:55.906Z,2.60
2023-04-19T07:49:22.909Z,2.75
2023-04-19T07:51:49.919Z,2.72
2023-04-19T07:54:18.044Z,3.35
2023-04-19T07:56:45.914Z,2.72
2023-04-19T07:59:12.931Z,3.38
2023-04-19T08:01:40.071Z,2.88
2023-04-19T08:04:08.113Z,2.88
2023-04-19T08:06:37.776Z,2.92
2023-04-19T08:09:05.025Z,3.17
2023-04-19T08:11:32.060Z,3.50
2023-04-19T08:14:09.370Z,2.67
2023-04-19T08:17:19.273Z,3.95
2023-04-19T08:19:28.950Z,3.17
2023-04-19T08:21:56.641Z,2.95
2023-04-19T08:24:23.629Z,4.00
2023-04-19T08:26:53.553Z,3.35
2023-04-19T08:29:22.081Z,3.88
2023-04-19T08:31:49.228Z,2.95
2023-04-19T08:34:16.286Z,3.22
2023-04-19T08:36:51.913Z,3.17
2023-04-19T08:39:32.510Z,3.45
2023-04-19T08:42:18.427Z,3.83
2023-04-19T08:45:17.170Z,4.30
2023-04-19T08:47:58.832Z,3.22
2023-04-19T08:50:34.604Z,2.80
2023-04-19T08:55:59.276Z,3.10
2023-04-19T09:01:06.917Z,2.70
2023-04-19T09:03:44.038Z,3.22
2023-04-19T09:06:18.776Z,2.80
2023-04-19T09:08:45.998Z,3.67
2023-04-19T09:11:13.104Z,3.05
2023-04-19T09:13:42.381Z,2.63
2023-04-19T09:16:23.878Z,2.85
2023-04-19T09:19:02.448Z,2.60
2023-04-19T09:21:36.158Z,2.67
2023-04-19T09:24:03.846Z,2.58
2023-04-19T09:26:32.070Z,2.25
2023-04-19T09:29:02.262Z,2.28
2023-04-19T09:31:48.075Z,2.08
2023-04-19T09:34:19.269Z,1.90
2023-04-19T09:36:46.906Z,2.00
2023-04-19T09:39:14.603Z,2.15
2023-04-19T09:41:54.907Z,1.92
2023-04-19T09:45:01.632Z,1.67
2023-04-19T09:47:26.502Z,1.40
2023-04-19T09:50:21.274Z,4.95
2023-04-19T09:52:52.174Z,1.52
2023-04-19T09:57:49.661Z,1.92
2023-04-19T10:00:16.996Z,2.08
2023-04-19T10:02:48.683Z,2.20
2023-04-19T10:05:21.227Z,2.22
2023-04-19T10:07:54.891Z,2.27
2023-04-19T10:10:40.365Z,1.65
2023-04-19T10:15:51.375Z,2.08
2023-04-19T10:18:21.507Z,2.25
2023-04-19T10:21:01.441Z,2.00
2023-04-19T10:23:29.226Z,1.42
2023-04-19T10:25:58.232Z,1.30
2023-04-19T10:28:28.649Z,1.48
2023-04-19T10:31:02.564Z,1.30
2023-04-19T10:33:31.984Z,1.27
2023-04-19T10:35:59.847Z,1.45
2023-04-19T10:38:47.769Z,1.33
2023-04-19T10:41:17.904Z,0.90
2023-04-19T10:43:54.949Z,1.35
2023-04-19T10:46:22.053Z,1.00
2023-04-19T10:48:59.065Z,1.00
2023-04-19T10:51:36.454Z,1.00
2023-04-19T10:54:08.242Z,1.17
2023-04-19T10:56:35.510Z,1.13
2023-04-19T10:59:08.154Z,1.00
2023-04-19T11:01:39.995Z,1.08
2023-04-19T11:04:11.748Z,1.20
2023-04-19T11:06:54.155Z,1.10
2023-04-19T11:09:25.520Z,1.00
2023-04-19T11:11:54.230Z,0.50
2023-04-19T11:14:21.594Z,0.98
2023-04-19T11:16:48.662Z,0.90
2023-04-19T11:19:16.844Z,1.08
2023-04-19T11:21:48.224Z,0.90
2023-04-19T11:24:18.921Z,0.90
2023-04-19T11:26:47.014Z,0.75
2023-04-19T11:29:14.563Z,0.60
2023-04-19T11:31:46.389Z,0.63
2023-04-19T11:34:13.683Z,1.00
2023-04-19T11:36:51.655Z,0.95
2023-04-19T11:39:19.469Z,1.23
2023-04-19T11:41:47.296Z,0.68
2023-04-19T11:44:20.380Z,0.80
2023-04-19T11:47:05.134Z,0.80
2023-04-19T11:49:34.051Z,0.80
2023-04-19T11:52:05.272Z,0.73
2023-04-19T11:54:33.598Z,0.80
2023-04-19T11:57:04.540Z,0.70
2023-04-19T11:59:33.254Z,1.20
2023-04-19T12:02:06.941Z,1.00
2023-04-19T12:04:35.023Z,1.10
2023-04-19T12:07:04.157Z,1.00
2023-04-19T12:09:34.882Z,0.80
2023-04-19T12:12:02.191Z,0.80
2023-04-19T12:14:30.434Z,1.05
2023-04-19T12:17:08.926Z,0.80
2023-04-19T12:19:44.217Z,1.00
2023-04-19T12:22:17.285Z,1.00
2023-04-19T12:24:44.427Z,0.80
2023-04-19T12:27:11.887Z,0.52
2023-04-19T12:29:39.456Z,0.65
2023-04-19T12:32:06.952Z,0.57
2023-04-19T12:34:34.014Z,0.82
2023-04-19T12:37:01.412Z,0.60
2023-04-19T12:39:28.896Z,0.60
2023-04-19T12:41:56.786Z,0.80
2023-04-19T12:44:23.950Z,1.20
2023-04-19T12:46:51.040Z,0.88
2023-04-19T12:49:20.008Z,0.98
2023-04-19T12:51:47.586Z,1.25
2023-04-19T12:54:15.622Z,1.85
2023-04-19T12:56:42.877Z,1.20
2023-04-19T12:59:09.965Z,1.05
2023-04-19T13:01:37.098Z,1.50
2023-04-19T13:04:04.470Z,1.38
2023-04-19T13:06:31.672Z,1.60
2023-04-19T13:09:01.134Z,1.20
2023-04-19T13:11:28.708Z,1.45
2023-04-19T13:13:55.774Z,0.90
2023-04-19T13:16:23.093Z,1.52
2023-04-19T13:18:52.302Z,1.27
2023-04-19T13:21:19.396Z,1.05
2023-04-19T13:23:46.472Z,1.40
2023-04-19T13:26:14.000Z,1.30
2023-04-19T13:28:42.238Z,1.48
2023-04-19T13:31:09.274Z,1.38
2023-04-19T13:33:36.731Z,1.25
2023-04-19T13:36:04.095Z,1.17
2023-04-19T13:38:31.364Z,1.13
2023-04-19T13:40:59.349Z,1.10
2023-04-19T13:43:26.560Z,1.33
2023-04-19T13:45:53.962Z,1.20
2023-04-19T13:48:21.414Z,1.20
2023-04-19T13:50:50.912Z,1.63
2023-04-19T13:56:09.111Z,1.50
2023-04-19T13:58:36.596Z,2.95
2023-04-19T14:01:03.718Z,1.30
2023-04-19T14:03:31.378Z,1.20
2023-04-19T14:05:58.683Z,1.52
2023-04-19T14:08:25.760Z,1.45
2023-04-19T14:10:52.864Z,2.13
2023-04-19T14:13:19.886Z,1.30
2023-04-19T14:15:46.958Z,1.48
2023-04-19T14:18:14.027Z,1.25
2023-04-19T14:20:41.087Z,1.20
2023-04-19T14:23:08.165Z,1.40
2023-04-19T14:25:36.684Z,1.20
2023-04-19T14:28:03.835Z,1.65
2023-04-19T14:30:31.333Z,1.67
2023-04-19T14:32:58.550Z,3.65
2023-04-19T14:35:25.723Z,1.85
2023-04-19T14:37:52.790Z,1.40
2023-04-19T14:40:20.500Z,1.27
2023-04-19T14:42:47.503Z,1.20
2023-04-19T14:45:14.615Z,1.08
2023-04-19T14:47:41.680Z,1.35
2023-04-19T14:50:09.322Z,1.42
2023-04-19T14:52:36.389Z,1.35
2023-04-19T14:55:03.995Z,1.52
2023-04-19T14:57:31.068Z,1.83
2023-04-19T14:59:58.201Z,2.13
2023-04-19T15:02:25.458Z,1.38
2023-04-19T15:04:53.317Z,1.27
2023-04-19T15:07:21.452Z,1.05
2023-04-19T15:09:48.556Z,1.33
2023-04-19T15:12:15.628Z,1.38
2023-04-19T15:14:42.659Z,1.60
2023-04-19T15:17:09.737Z,1.95
2023-04-19T15:19:38.689Z,1.40
2023-04-19T15:22:06.245Z,1.48
2023-04-19T15:24:36.175Z,1.42
2023-04-19T15:27:03.977Z,1.42
2023-04-19T15:29:31.002Z,1.30
2023-04-19T15:31:58.114Z,1.60
2023-04-19T15:34:25.339Z,1.17
2023-04-19T15:36:52.405Z,1.27
2023-04-19T15:39:19.516Z,1.35
2023-04-19T15:41:46.551Z,2.25
2023-04-19T15:44:13.625Z,1.25
2023-04-19T15:46:40.756Z,1.35
2023-04-19T15:49:07.886Z,1.30
2023-04-19T15:51:34.958Z,1.55
2023-04-19T15:54:01.935Z,1.33
2023-04-19T15:56:28.950Z,1.42
2023-04-19T15:58:55.962Z,1.35
2023-04-19T16:01:23.229Z,1.13
2023-04-19T16:03:50.456Z,1.20
2023-04-19T16:06:17.687Z,1.17
2023-04-19T16:08:44.735Z,1.63
2023-04-19T16:11:11.773Z,1.20
2023-04-19T16:13:38.955Z,1.33
2023-04-19T16:16:06.503Z,1.42
2023-04-19T16:18:33.582Z,1.20
2023-04-19T16:21:00.654Z,1.33
2023-04-19T16:23:27.696Z,1.33
2023-04-19T16:25:56.654Z,1.30
2023-04-19T16:28:24.010Z,2.15
2023-04-19T16:30:51.003Z,0.98
2023-04-19T16:33:18.150Z,1.27
2023-04-19T16:35:45.357Z,1.00
2023-04-19T16:38:12.399Z,1.30
2023-04-19T16:40:39.466Z,1.27
2023-04-19T16:43:06.621Z,1.17
2023-04-19T16:45:33.946Z,1.30
2023-04-19T16:48:01.094Z,1.17
2023-04-19T16:50:28.284Z,1.20
2023-04-19T16:52:55.300Z,1.13
2023-04-19T16:55:22.453Z,1.20
2023-04-19T16:57:50.896Z,1.10
2023-04-19T17:00:18.187Z,1.08
2023-04-19T17:02:45.365Z,1.05
2023-04-19T17:05:13.765Z,0.98
2023-04-19T17:07:40.946Z,1.10
2023-04-19T17:10:08.573Z,1.42
2023-04-19T17:12:35.675Z,1.20
2023-04-19T17:15:03.181Z,1.02
2023-04-19T17:17:30.469Z,1.55
2023-04-19T17:19:57.673Z,1.33
2023-04-19T17:22:24.947Z,1.60
2023-04-19T17:24:53.975Z,1.52
2023-04-19T17:27:21.109Z,1.13
2023-04-19T17:29:48.119Z,1.17
2023-04-19T17:32:15.469Z,1.40
2023-04-19T17:34:42.556Z,1.60
2023-04-19T17:37:09.606Z,1.42
2023-04-19T17:39:36.736Z,1.38
2023-04-19T17:42:03.846Z,1.48
2023-04-19T17:44:30.884Z,1.30
2023-04-19T17:46:58.201Z,1.70
2023-04-19T17:49:26.940Z,1.67
2023-04-19T17:51:55.642Z,1.75
2023-04-19T17:54:22.888Z,2.45
2023-04-19T17:56:50.223Z,1.92
2023-04-19T17:59:18.551Z,1.63
2023-04-19T18:01:45.733Z,1.30
2023-04-19T18:04:17.378Z,1.63
2023-04-19T18:06:47.063Z,1.67
2023-04-19T18:09:14.715Z,1.30
2023-04-19T18:11:42.024Z,1.42
2023-04-19T18:14:09.041Z,1.85
2023-04-19T18:16:36.219Z,1.83
2023-04-19T18:19:03.275Z,1.25
2023-04-19T18:21:30.440Z,1.00
2023-04-19T18:23:57.465Z,1.95
2023-04-19T18:26:24.630Z,1.35
2023-04-19T18:28:51.661Z,1.40
2023-04-19T18:31:18.668Z,1.65
2023-04-19T18:33:45.770Z,1.40
2023-04-19T18:36:12.804Z,1.00
2023-04-19T18:38:39.821Z,1.45
2023-04-19T18:41:06.906Z,1.52
2023-04-19T18:43:33.904Z,1.42
2023-04-19T18:46:01.319Z,1.15
2023-04-19T18:48:29.775Z,1.30
2023-04-19T18:50:57.318Z,1.40
2023-04-19T18:53:27.623Z,1.50
2023-04-19T18:55:57.651Z,1.40
2023-04-19T18:58:26.779Z,1.73
2023-04-19T19:00:54.708Z,1.67
2023-04-19T19:05:54.769Z,1.23
2023-04-19T19:08:21.981Z,2.35
2023-04-19T19:11:14.247Z,1.70
2023-04-19T19:13:36.142Z,1.33
2023-04-19T19:16:05.355Z,2.00
2023-04-19T19:18:32.544Z,1.52
2023-04-19T19:21:03.070Z,1.65
2023-04-19T19:23:35.718Z,1.80
2023-04-19T19:26:04.983Z,1.90
2023-04-19T19:28:31.971Z,1.52
2023-04-19T19:30:59.023Z,3.78
2023-04-19T19:33:28.661Z,1.80
2023-04-19T19:35:55.972Z,1.52
2023-04-19T19:38:23.023Z,1.52
2023-04-19T19:43:19.927Z,1.85
2023-04-19T19:45:46.947Z,2.00
2023-04-19T19:48:14.374Z,2.15
2023-04-19T19:53:11.477Z,2.03
2023-04-19T19:55:38.523Z,1.73
2023-04-19T20:03:06.673Z,2.20
2023-04-19T20:05:34.235Z,1.95
2023-04-19T20:08:11.697Z,2.58
2023-04-19T20:10:41.437Z,2.20
2023-04-19T20:13:08.562Z,2.33
2023-04-19T20:15:37.063Z,2.20
2023-04-19T20:18:05.172Z,2.50
2023-04-19T20:20:32.273Z,2.33
2023-04-19T20:22:59.330Z,2.60
2023-04-19T20:25:26.765Z,2.50
2023-04-19T20:27:54.261Z,2.40
2023-04-19T20:30:21.394Z,2.83
2023-04-19T20:32:49.998Z,2.70
2023-04-19T20:35:17.410Z,3.17
2023-04-19T20:37:44.469Z,2.80
2023-04-19T20:40:14.372Z,2.08
2023-04-19T20:42:42.306Z,2.03
2023-04-19T20:45:10.508Z,2.20
2023-04-19T20:47:38.367Z,2.17
2023-04-19T20:50:06.883Z,2.92
2023-04-19T20:52:34.733Z,2.50
2023-04-19T20:55:01.911Z,1.90
2023-04-19T20:57:29.005Z,2.38
2023-04-19T20:59:56.030Z,2.15
2023-04-19T21:02:23.120Z,2.70
2023-04-19T21:04:50.232Z,2.70
2023-04-19T21:07:17.243Z,2.78
2023-04-19T21:09:44.294Z,2.85
2023-04-19T21:12:11.455Z,2.35
2023-04-19T21:14:38.537Z,2.72
2023-04-19T21:17:05.921Z,2.78
2023-04-19T21:19:32.925Z,2.63
2023-04-19T21:21:59.926Z,3.10
2023-04-19T21:24:26.928Z,2.90
2023-04-19T21:26:53.984Z,3.05
2023-04-19T21:29:21.030Z,2.67
2023-04-19T21:31:48.153Z,2.30
2023-04-19T21:34:15.327Z,2.45
2023-04-19T21:36:42.365Z,2.13
2023-04-19T21:39:10.138Z,1.75
2023-04-19T21:41:38.005Z,2.42
2023-04-19T21:44:05.082Z,1.77
2023-04-19T21:46:33.282Z,1.60
2023-04-19T21:49:00.357Z,2.15
2023-04-19T21:51:27.552Z,2.30
2023-04-19T21:53:54.561Z,2.30
2023-04-19T21:56:21.611Z,2.83
2023-04-19T21:58:48.662Z,2.20
2023-04-19T22:01:16.682Z,2.75
2023-04-19T22:03:45.755Z,2.55
2023-04-19T22:06:13.852Z,2.78
2023-04-19T22:08:42.322Z,3.15
2023-04-19T22:11:09.312Z,3.05
2023-04-19T22:13:37.322Z,3.22
2023-04-19T22:16:04.840Z,4.10
2023-04-19T22:18:34.099Z,4.20
2023-04-19T22:21:01.302Z,4.50
2023-04-19T22:23:28.322Z,4.10
2023-04-19T22:25:55.349Z,3.65
2023-04-19T22:28:22.431Z,3.25
2023-04-19T22:30:51.160Z,4.10
2023-04-19T22:33:19.043Z,3.83
2023-04-19T22:35:46.205Z,3.13
2023-04-19T22:38:13.367Z,3.40
2023-04-19T22:40:40.562Z,3.67
2023-04-19T22:43:07.564Z,3.65
2023-04-19T22:45:34.601Z,4.20
2023-04-19T22:48:03.051Z,3.50
2023-04-19T22:50:30.155Z,3.40
2023-04-19T22:52:57.193Z,3.20
2023-04-19T22:55:24.360Z,3.78
2023-04-19T22:57:51.418Z,3.25
2023-04-19T23:00:18.828Z,4.45
2023-04-19T23:02:45.992Z,3.85
2023-04-19T23:05:13.420Z,3.63
2023-04-19T23:07:41.915Z,3.50
2023-04-19T23:10:10.193Z,3.42
2023-04-19T23:12:38.763Z,3.35
2023-04-19T23:15:06.754Z,3.28
2023-04-19T23:17:34.472Z,4.15
2023-04-19T23:20:01.490Z,3.25
2023-04-19T23:22:28.622Z,3.47
2023-04-19T23:24:55.980Z,3.47
2023-04-19T23:27:22.975Z,3.38
2023-04-19T23:29:50.139Z,3.22
2023-04-19T23:32:18.153Z,3.33
2023-04-19T23:34:45.278Z,4.00
2023-04-19T23:37:13.661Z,3.33
2023-04-19T23:39:40.937Z,2.80
2023-04-19T23:42:07.981Z,4.55
2023-04-19T23:44:35.362Z,3.50
2023-04-19T23:47:05.023Z,5.00
2023-04-19T23:49:32.291Z,4.07
2023-04-19T23:51:59.480Z,4.28
2023-04-19T23:54:26.658Z,4.90
2023-04-19T23:56:54.269Z,4.22
2023-04-19T23:59:21.252Z,4.70
